Time;durP1;ratioP1;P1;durP2;ratioP2;P2;SDS_P1;SDS_P2;PMS_P1;PMS_P2;Temp;Humidity;BMP_temperature;BMP_pressure;BME280_temperature;BME280_humidity;BME280_pressure;Samples;Min_cycle;Max_cycle;Signal;HPM_P1;HPM_P2
2022/08/16 00:00:32;;;;;;;38.40;33.47;;;;;;;;;;5019978;28;20045;-70
2022/08/16 00:02:58;;;;;;;42.85;30.95;;;;;;;;;;5025132;28;20426;-70
2022/08/16 00:05:25;;;;;;;39.67;29.67;;;;;;;;;;5020726;28;20036;-70
2022/08/16 00:07:53;;;;;;;38.28;30.83;;;;;;;;;;5021238;28;20041;-70
2022/08/16 00:10:19;;;;;;;35.85;28.85;;;;;;;;;;5020399;28;20032;-70
2022/08/16 00:12:45;;;;;;;37.63;32.60;;;;;;;;;;5020886;28;20125;-70
2022/08/16 00:15:16;;;;;;;37.15;33.05;;;;;;;;;;5023939;28;20028;-70
2022/08/16 00:17:44;;;;;;;38.72;30.63;;;;;;;;;;5018936;28;20040;-69
2022/08/16 00:20:10;;;;;;;36.47;31.73;;;;;;;;;;5021029;28;20039;-69
2022/08/16 00:22:36;;;;;;;40.67;32.28;;;;;;;;;;5021654;28;20131;-70
2022/08/16 00:25:03;;;;;;;35.22;29.42;;;;;;;;;;5021939;28;20082;-69
2022/08/16 00:27:28;;;;;;;35.00;29.02;;;;;;;;;;5021441;28;20032;-69
2022/08/16 00:29:53;;;;;;;35.08;29.58;;;;;;;;;;5022949;28;20441;-69
2022/08/16 00:32:19;;;;;;;35.08;29.75;;;;;;;;;;5034659;28;20698;-70
2022/08/16 00:34:44;;;;;;;35.83;30.20;;;;;;;;;;5021176;28;20768;-70
2022/08/16 00:37:10;;;;;;;37.63;30.42;;;;;;;;;;5019131;28;20368;-70
2022/08/16 00:39:35;;;;;;;36.88;32.97;;;;;;;;;;5019359;28;20075;-69
2022/08/16 00:42:00;;;;;;;40.05;32.55;;;;;;;;;;5020370;28;20135;-80
2022/08/16 00:44:26;;;;;;;36.20;30.67;;;;;;;;;;5020408;28;20140;-80
2022/08/16 00:46:54;;;;;;;35.72;30.98;;;;;;;;;;5022993;28;20028;-78
2022/08/16 00:49:20;;;;;;;35.47;30.95;;;;;;;;;;5006517;28;20083;-79
2022/08/16 00:51:47;;;;;;;34.70;28.77;;;;;;;;;;5022271;28;20474;-79
2022/08/16 00:54:12;;;;;;;37.53;28.75;;;;;;;;;;5021713;28;20040;-78
2022/08/16 00:56:39;;;;;;;35.38;28.88;;;;;;;;;;5020731;28;20037;-78
2022/08/16 00:59:06;;;;;;;34.60;29.73;;;;;;;;;;5020295;28;20515;-79
2022/08/16 01:01:31;;;;;;;41.45;31.48;;;;;;;;;;5023245;28;20062;-79
2022/08/16 01:03:57;;;;;;;35.42;29.05;;;;;;;;;;5022549;28;20561;-79
2022/08/16 01:06:24;;;;;;;39.05;28.88;;;;;;;;;;5034912;28;20067;-79
2022/08/16 01:08:51;;;;;;;44.42;32.53;;;;;;;;;;5020231;28;20036;-80
2022/08/16 01:11:16;;;;;;;42.05;31.90;;;;;;;;;;5021326;28;20040;-79
2022/08/16 01:13:42;;;;;;;43.25;35.35;;;;;;;;;;5021465;28;20061;-79
2022/08/16 01:16:12;;;;;;;45.10;34.03;;;;;;;;;;5022116;28;20048;-79
2022/08/16 01:18:41;;;;;;;43.10;34.83;;;;;;;;;;5023003;28;20127;-79
2022/08/16 01:21:25;;;;;;;47.25;37.08;;;;;;;;;;5024432;28;20044;-79
2022/08/16 01:24:20;;;;;;;46.35;36.35;;;;;;;;;;5019310;28;20110;-70
2022/08/16 01:26:47;;;;;;;46.42;34.15;;;;;;;;;;5005270;28;21896;-70
2022/08/16 01:29:15;;;;;;;43.97;35.08;;;;;;;;;;5018318;28;20047;-70
2022/08/16 01:31:42;;;;;;;44.30;35.00;;;;;;;;;;5020885;28;20052;-78
2022/08/16 01:34:08;;;;;;;49.20;36.22;;;;;;;;;;5037467;28;20573;-79
2022/08/16 01:36:34;;;;;;;53.50;38.75;;;;;;;;;;5020485;28;20047;-81
2022/08/16 01:39:09;;;;;;;50.85;37.72;;;;;;;;;;5021798;28;20330;-79
2022/08/16 01:41:35;;;;;;;46.25;37.10;;;;;;;;;;5019981;28;20128;-79
2022/08/16 01:44:00;;;;;;;47.83;38.20;;;;;;;;;;5020336;28;20481;-79
2022/08/16 01:46:28;;;;;;;50.42;38.88;;;;;;;;;;5034146;28;20195;-70
2022/08/16 01:48:59;;;;;;;53.97;39.80;;;;;;;;;;5022617;28;20110;-78
2022/08/16 01:51:25;;;;;;;46.20;38.80;;;;;;;;;;5021249;28;21641;-79
2022/08/16 01:53:51;;;;;;;50.95;40.58;;;;;;;;;;5035217;28;20060;-70
2022/08/16 01:56:16;;;;;;;50.60;41.33;;;;;;;;;;5023334;28;20402;-70
2022/08/16 01:58:41;;;;;;;57.40;45.72;;;;;;;;;;5017168;28;20547;-70
2022/08/16 02:01:07;;;;;;;56.30;45.83;;;;;;;;;;5023453;28;20142;-71
2022/08/16 02:03:34;;;;;;;53.22;44.25;;;;;;;;;;5016018;28;20083;-70
2022/08/16 02:06:00;;;;;;;56.22;43.55;;;;;;;;;;5019247;28;20033;-70
2022/08/16 02:08:25;;;;;;;63.72;48.53;;;;;;;;;;5018311;28;20063;-70
2022/08/16 02:10:51;;;;;;;62.60;49.83;;;;;;;;;;5019652;28;20032;-67
2022/08/16 02:13:17;;;;;;;57.40;47.13;;;;;;;;;;5022433;28;20048;-77
2022/08/16 02:15:43;;;;;;;57.35;46.92;;;;;;;;;;5028342;28;20062;-80
2022/08/16 02:18:08;;;;;;;62.47;50.03;;;;;;;;;;5027281;28;20449;-79
2022/08/16 02:20:35;;;;;;;60.65;50.45;;;;;;;;;;5029841;28;20078;-79
2022/08/16 02:23:01;;;;;;;60.00;46.90;;;;;;;;;;5027770;28;20540;-79
2022/08/16 02:25:29;;;;;;;67.45;51.22;;;;;;;;;;5033497;28;20246;-79
2022/08/16 02:27:55;;;;;;;64.30;51.50;;;;;;;;;;5028924;28;20279;-80
2022/08/16 02:30:23;;;;;;;71.43;53.42;;;;;;;;;;5025089;28;20229;-69
2022/08/16 02:32:51;;;;;;;67.22;51.47;;;;;;;;;;5017781;28;20141;-68
2022/08/16 02:35:23;;;;;;;71.38;51.30;;;;;;;;;;5032940;28;20623;-69
2022/08/16 02:37:48;;;;;;;86.90;59.15;;;;;;;;;;5018823;28;20463;-70
2022/08/16 02:40:15;;;;;;;77.97;57.63;;;;;;;;;;5023824;28;20175;-69
2022/08/16 02:42:41;;;;;;;74.35;57.03;;;;;;;;;;5023932;28;20303;-69
2022/08/16 02:45:08;;;;;;;75.60;57.00;;;;;;;;;;5023773;28;20147;-69
2022/08/16 02:47:33;;;;;;;73.78;57.05;;;;;;;;;;5023942;28;20560;-68
2022/08/16 02:49:58;;;;;;;75.90;59.30;;;;;;;;;;5023510;28;20266;-68
2022/08/16 02:52:24;;;;;;;83.68;64.65;;;;;;;;;;5019060;28;20071;-69
2022/08/16 02:54:52;;;;;;;81.28;64.55;;;;;;;;;;5021184;28;20282;-68
2022/08/16 02:57:18;;;;;;;83.82;64.30;;;;;;;;;;5009468;28;20622;-69
2022/08/16 02:59:43;;;;;;;83.10;65.53;;;;;;;;;;5038284;28;20051;-68
2022/08/16 03:02:09;;;;;;;89.10;64.53;;;;;;;;;;5032225;28;20789;-69
2022/08/16 03:04:36;;;;;;;75.13;58.17;;;;;;;;;;5021898;28;20270;-68
2022/08/16 03:07:01;;;;;;;88.88;68.20;;;;;;;;;;5026578;28;21931;-69
2022/08/16 03:09:29;;;;;;;81.75;63.05;;;;;;;;;;5026368;28;20036;-69
2022/08/16 03:11:54;;;;;;;87.57;64.28;;;;;;;;;;5018984;28;20047;-69
2022/08/16 03:14:20;;;;;;;76.30;59.25;;;;;;;;;;5025479;28;20033;-80
2022/08/16 03:16:45;;;;;;;77.93;58.65;;;;;;;;;;5029356;28;20451;-78
2022/08/16 03:19:14;;;;;;;79.38;60.63;;;;;;;;;;5027853;28;20622;-79
2022/08/16 03:21:39;;;;;;;84.65;62.90;;;;;;;;;;5025255;28;20037;-78
2022/08/16 03:24:08;;;;;;;81.32;62.80;;;;;;;;;;5023439;28;20382;-78
2022/08/16 03:26:33;;;;;;;82.43;63.85;;;;;;;;;;5025179;28;20040;-78
2022/08/16 03:28:59;;;;;;;71.18;58.47;;;;;;;;;;5023557;28;20029;-80
2022/08/16 03:31:26;;;;;;;74.50;58.40;;;;;;;;;;5038115;28;20086;-79
2022/08/16 03:33:54;;;;;;;72.13;57.55;;;;;;;;;;5023674;28;20043;-78
2022/08/16 03:36:19;;;;;;;77.90;62.55;;;;;;;;;;5024686;28;20029;-79
2022/08/16 03:38:45;;;;;;;82.57;69.00;;;;;;;;;;5024687;28;21734;-79
2022/08/16 03:41:10;;;;;;;83.45;68.22;;;;;;;;;;5035538;28;20040;-69
2022/08/16 03:43:35;;;;;;;80.65;65.35;;;;;;;;;;5023869;28;20095;-79
2022/08/16 03:46:01;;;;;;;76.47;65.35;;;;;;;;;;5024490;28;20036;-80
2022/08/16 03:48:28;;;;;;;76.85;59.13;;;;;;;;;;5022178;28;20156;-79
2022/08/16 03:50:53;;;;;;;73.03;60.05;;;;;;;;;;5037734;28;20485;-79
2022/08/16 03:53:18;;;;;;;74.63;58.92;;;;;;;;;;5021433;28;20415;-79
2022/08/16 03:55:44;;;;;;;76.55;56.55;;;;;;;;;;5039118;28;20537;-77
2022/08/16 03:58:09;;;;;;;74.97;57.85;;;;;;;;;;5023457;28;20028;-69
2022/08/16 04:00:35;;;;;;;79.38;59.65;;;;;;;;;;5020210;28;20125;-69
2022/08/16 04:03:05;;;;;;;82.60;65.22;;;;;;;;;;5019711;28;20386;-70
2022/08/16 04:05:31;;;;;;;76.25;61.38;;;;;;;;;;5020147;28;20060;-69
2022/08/16 04:07:57;;;;;;;73.07;57.35;;;;;;;;;;5023505;28;20048;-69
2022/08/16 04:10:23;;;;;;;75.05;58.03;;;;;;;;;;5036289;28;20157;-69
2022/08/16 04:12:48;;;;;;;74.43;61.58;;;;;;;;;;5021562;28;20047;-69
2022/08/16 04:15:15;;;;;;;76.32;59.00;;;;;;;;;;5018977;28;20049;-70
2022/08/16 04:17:49;;;;;;;75.03;56.03;;;;;;;;;;5033862;28;20119;-70
2022/08/16 04:20:31;;;;;;;73.70;56.85;;;;;;;;;;4979696;28;20108;-69
2022/08/16 04:22:57;;;;;;;76.13;60.45;;;;;;;;;;4994469;28;20076;-69
2022/08/16 04:25:25;;;;;;;76.80;55.55;;;;;;;;;;4978613;28;20600;-71
2022/08/16 04:27:51;;;;;;;74.57;58.55;;;;;;;;;;4978841;28;20526;-69
2022/08/16 04:30:17;;;;;;;82.60;62.80;;;;;;;;;;4978483;28;20044;-70
2022/08/16 04:32:42;;;;;;;78.95;59.90;;;;;;;;;;4975376;28;20072;-70
2022/08/16 04:35:10;;;;;;;77.95;58.90;;;;;;;;;;4977407;28;20038;-70
2022/08/16 04:37:36;;;;;;;71.57;57.17;;;;;;;;;;4978447;28;20534;-70
2022/08/16 04:40:02;;;;;;;72.40;57.88;;;;;;;;;;4975438;28;20041;-69
2022/08/16 04:42:27;;;;;;;65.45;51.30;;;;;;;;;;4977459;28;20516;-70
2022/08/16 04:44:56;;;;;;;71.35;50.45;;;;;;;;;;4959156;28;20037;-70
2022/08/16 04:47:23;;;;;;;70.82;51.60;;;;;;;;;;4976220;28;20629;-70
2022/08/16 04:49:51;;;;;;;71.78;49.72;;;;;;;;;;4976797;28;20085;-70
2022/08/16 04:52:18;;;;;;;58.28;41.97;;;;;;;;;;5012009;28;20457;-70
2022/08/16 04:54:44;;;;;;;52.45;41.03;;;;;;;;;;5018060;28;20037;-71
2022/08/16 04:57:09;;;;;;;53.60;40.78;;;;;;;;;;5017736;28;20557;-70
2022/08/16 04:59:37;;;;;;;57.00;40.58;;;;;;;;;;5021621;28;20557;-71
2022/08/16 05:02:03;;;;;;;58.85;41.22;;;;;;;;;;5017802;28;20137;-71
2022/08/16 05:04:30;;;;;;;60.67;41.03;;;;;;;;;;5033326;28;20025;-71
2022/08/16 05:06:55;;;;;;;54.70;39.47;;;;;;;;;;5019349;28;20138;-71
2022/08/16 05:09:22;;;;;;;53.58;40.83;;;;;;;;;;5018222;28;20155;-71
2022/08/16 05:11:48;;;;;;;64.50;44.13;;;;;;;;;;5030647;28;20274;-70
2022/08/16 05:14:13;;;;;;;55.85;42.90;;;;;;;;;;5018577;28;20653;-71
2022/08/16 05:16:38;;;;;;;61.63;43.08;;;;;;;;;;5033060;28;20083;-70
2022/08/16 05:19:05;;;;;;;59.60;43.50;;;;;;;;;;5019417;28;20041;-70
2022/08/16 05:21:31;;;;;;;57.70;43.25;;;;;;;;;;5020261;28;20537;-70
2022/08/16 05:23:59;;;;;;;59.45;42.75;;;;;;;;;;5034097;28;20111;-71
2022/08/16 05:26:29;;;;;;;64.82;42.55;;;;;;;;;;5015085;28;20043;-69
2022/08/16 05:28:57;;;;;;;60.72;43.08;;;;;;;;;;5019914;28;20775;-70
2022/08/16 05:31:24;;;;;;;63.58;44.28;;;;;;;;;;5020122;28;20040;-69
2022/08/16 05:33:52;;;;;;;60.95;43.22;;;;;;;;;;5019268;28;20032;-71
2022/08/16 05:36:19;;;;;;;61.42;43.55;;;;;;;;;;5033981;28;20205;-68
2022/08/16 05:38:45;;;;;;;58.08;41.65;;;;;;;;;;5018390;28;20037;-69
2022/08/16 05:41:10;;;;;;;57.70;42.45;;;;;;;;;;5024358;28;20059;-70
2022/08/16 05:43:36;;;;;;;59.60;41.40;;;;;;;;;;5003670;28;20719;-69
2022/08/16 05:46:01;;;;;;;54.95;40.72;;;;;;;;;;5019383;28;20229;-69
2022/08/16 05:48:27;;;;;;;54.75;39.67;;;;;;;;;;5030938;28;20045;-70
2022/08/16 05:50:52;;;;;;;56.90;40.55;;;;;;;;;;5020961;28;20028;-69
2022/08/16 05:53:18;;;;;;;53.38;39.42;;;;;;;;;;5018241;28;21763;-70
2022/08/16 05:55:43;;;;;;;51.22;38.90;;;;;;;;;;5020305;28;20447;-70
2022/08/16 05:58:08;;;;;;;59.08;39.28;;;;;;;;;;5023562;28;20608;-71
2022/08/16 06:00:36;;;;;;;49.88;38.67;;;;;;;;;;5033009;28;20036;-69
2022/08/16 06:03:04;;;;;;;54.97;38.78;;;;;;;;;;5017509;28;20508;-70
2022/08/16 06:05:30;;;;;;;53.95;39.15;;;;;;;;;;5021442;28;20483;-69
2022/08/16 06:07:55;;;;;;;52.08;38.35;;;;;;;;;;5032068;28;20619;-70
2022/08/16 06:10:20;;;;;;;50.90;38.03;;;;;;;;;;5030848;28;20324;-70
2022/08/16 06:12:46;;;;;;;50.95;38.42;;;;;;;;;;5021826;28;20654;-71
2022/08/16 06:15:13;;;;;;;54.95;39.47;;;;;;;;;;5021377;28;20576;-71
2022/08/16 06:17:39;;;;;;;53.72;39.60;;;;;;;;;;5018316;28;20097;-70
2022/08/16 06:20:07;;;;;;;53.50;38.03;;;;;;;;;;5020092;28;20037;-70
2022/08/16 06:22:34;;;;;;;53.28;37.92;;;;;;;;;;5006350;28;20558;-71
2022/08/16 06:24:59;;;;;;;57.15;40.40;;;;;;;;;;5019938;28;20128;-70
2022/08/16 06:27:25;;;;;;;53.60;40.53;;;;;;;;;;5034699;28;20458;-70
2022/08/16 06:29:50;;;;;;;52.25;38.70;;;;;;;;;;5022971;28;20355;-76
2022/08/16 06:32:18;;;;;;;54.25;39.60;;;;;;;;;;5022005;28;20303;-76
2022/08/16 06:34:46;;;;;;;53.67;38.35;;;;;;;;;;5018250;28;20337;-80
2022/08/16 06:37:11;;;;;;;50.50;37.05;;;;;;;;;;5021343;28;20266;-69
2022/08/16 06:39:38;;;;;;;50.05;37.58;;;;;;;;;;5019926;28;20036;-70
2022/08/16 06:42:03;;;;;;;49.70;35.65;;;;;;;;;;5021768;28;20059;-78
2022/08/16 06:44:29;;;;;;;42.92;32.95;;;;;;;;;;5036557;28;20268;-80
2022/08/16 06:46:57;;;;;;;47.35;33.90;;;;;;;;;;5023283;28;20137;-81
2022/08/16 06:49:22;;;;;;;47.42;33.50;;;;;;;;;;5021237;28;20292;-79
2022/08/16 06:51:50;;;;;;;45.35;31.60;;;;;;;;;;5023029;28;20072;-78
2022/08/16 06:54:15;;;;;;;42.70;31.38;;;;;;;;;;5023127;28;20527;-78
2022/08/16 06:56:41;;;;;;;39.03;29.15;;;;;;;;;;5028098;28;20044;-78
2022/08/16 06:59:07;;;;;;;40.88;28.38;;;;;;;;;;5027133;28;20131;-78
2022/08/16 07:01:33;;;;;;;33.30;26.48;;;;;;;;;;5022113;28;20044;-80
2022/08/16 07:03:58;;;;;;;37.53;26.45;;;;;;;;;;5029049;28;20484;-69
2022/08/16 07:06:24;;;;;;;32.58;27.40;;;;;;;;;;5037091;28;20123;-70
2022/08/16 07:08:49;;;;;;;29.42;25.42;;;;;;;;;;5025126;28;20272;-70
2022/08/16 07:11:16;;;;;;;32.85;25.60;;;;;;;;;;5020253;28;20040;-71
2022/08/16 07:13:44;;;;;;;37.90;23.98;;;;;;;;;;5018762;28;20404;-70
2022/08/16 07:16:13;;;;;;;31.35;22.38;;;;;;;;;;5017675;28;20505;-69
2022/08/16 07:18:39;;;;;;;27.98;21.05;;;;;;;;;;5015068;28;20205;-70
2022/08/16 07:21:04;;;;;;;25.88;20.50;;;;;;;;;;5022286;28;20415;-69
2022/08/16 07:23:30;;;;;;;30.77;19.95;;;;;;;;;;5031621;28;20033;-70
2022/08/16 07:25:56;;;;;;;25.83;18.70;;;;;;;;;;5034895;28;20495;-69
2022/08/16 07:28:21;;;;;;;29.58;18.50;;;;;;;;;;5020033;28;20064;-69
2022/08/16 07:30:49;;;;;;;27.63;16.90;;;;;;;;;;5021836;28;20049;-70
2022/08/16 07:33:16;;;;;;;21.80;16.02;;;;;;;;;;5035348;28;20041;-70
2022/08/16 07:35:41;;;;;;;22.55;16.90;;;;;;;;;;5030912;28;20048;-75
2022/08/16 07:38:07;;;;;;;23.60;16.73;;;;;;;;;;5018794;28;20029;-74
2022/08/16 07:40:33;;;;;;;21.70;15.70;;;;;;;;;;5029331;28;20379;-68
2022/08/16 07:42:58;;;;;;;21.27;15.80;;;;;;;;;;5020076;28;20692;-68
2022/08/16 07:45:23;;;;;;;26.67;15.88;;;;;;;;;;5022232;28;20064;-69
2022/08/16 07:47:49;;;;;;;22.25;15.35;;;;;;;;;;5024324;28;20037;-69
2022/08/16 07:50:15;;;;;;;24.38;16.70;;;;;;;;;;5031943;28;20821;-68
2022/08/16 07:52:41;;;;;;;24.73;18.02;;;;;;;;;;5035053;28;20045;-67
2022/08/16 07:55:07;;;;;;;21.40;16.35;;;;;;;;;;5022220;28;20039;-70
2022/08/16 07:57:32;;;;;;;23.02;16.27;;;;;;;;;;5021889;28;20041;-68
2022/08/16 07:59:59;;;;;;;23.38;16.45;;;;;;;;;;5022775;28;20165;-69
2022/08/16 08:02:27;;;;;;;22.75;17.23;;;;;;;;;;5020767;28;20041;-68
2022/08/16 08:04:52;;;;;;;21.67;16.48;;;;;;;;;;5019288;28;20125;-69
2022/08/16 08:07:18;;;;;;;17.83;15.45;;;;;;;;;;5007037;28;20646;-74
2022/08/16 08:09:43;;;;;;;25.17;17.17;;;;;;;;;;5019458;28;22146;-74
2022/08/16 08:12:08;;;;;;;21.33;16.65;;;;;;;;;;5019145;28;20163;-73
2022/08/16 08:14:33;;;;;;;22.00;17.08;;;;;;;;;;5036592;28;20041;-68
2022/08/16 08:17:00;;;;;;;23.55;16.75;;;;;;;;;;5037685;28;20043;-68
2022/08/16 08:19:25;;;;;;;26.88;17.48;;;;;;;;;;5023293;28;20762;-68
2022/08/16 08:21:52;;;;;;;26.10;19.05;;;;;;;;;;5020294;28;20047;-68
2022/08/16 08:24:18;;;;;;;27.00;18.90;;;;;;;;;;5021300;28;20052;-68
2022/08/16 08:26:46;;;;;;;22.45;18.50;;;;;;;;;;5021982;28;20044;-68
2022/08/16 08:29:11;;;;;;;25.58;19.48;;;;;;;;;;5035572;28;20147;-68
2022/08/16 08:31:39;;;;;;;24.83;18.85;;;;;;;;;;5021863;28;20417;-68
2022/08/16 08:34:06;;;;;;;23.90;17.35;;;;;;;;;;5022170;28;20654;-68
2022/08/16 08:36:32;;;;;;;28.15;19.73;;;;;;;;;;5021011;28;20043;-68
2022/08/16 08:38:57;;;;;;;29.48;19.00;;;;;;;;;;5024494;28;20613;-68
2022/08/16 08:41:27;;;;;;;25.20;17.65;;;;;;;;;;5020193;28;20037;-66
2022/08/16 08:43:53;;;;;;;28.25;18.95;;;;;;;;;;5022543;28;20424;-69
2022/08/16 08:46:19;;;;;;;26.50;19.70;;;;;;;;;;5025274;28;20389;-67
2022/08/16 08:48:47;;;;;;;30.27;18.98;;;;;;;;;;5021765;28;20420;-68
2022/08/16 08:51:13;;;;;;;29.13;19.70;;;;;;;;;;5028087;28;20085;-67
2022/08/16 08:53:38;;;;;;;26.00;18.75;;;;;;;;;;5025776;28;20734;-68
2022/08/16 08:56:05;;;;;;;22.25;16.90;;;;;;;;;;5021497;28;20032;-67
2022/08/16 08:58:32;;;;;;;23.20;17.70;;;;;;;;;;5021892;28;20210;-67
2022/08/16 09:00:57;;;;;;;22.27;15.90;;;;;;;;;;5024063;28;20316;-67
2022/08/16 09:03:25;;;;;;;21.67;15.55;;;;;;;;;;5020895;28;20634;-67
2022/08/16 09:05:50;;;;;;;21.83;15.73;;;;;;;;;;5034959;28;20067;-68
2022/08/16 09:08:16;;;;;;;22.17;15.00;;;;;;;;;;5020854;28;20712;-68
2022/08/16 09:10:41;;;;;;;18.70;12.65;;;;;;;;;;5020484;28;21803;-68
2022/08/16 09:13:06;;;;;;;18.75;13.38;;;;;;;;;;5021829;28;20229;-68
2022/08/16 09:15:32;;;;;;;19.33;13.27;;;;;;;;;;5022128;28;22475;-68
2022/08/16 09:17:57;;;;;;;16.33;12.65;;;;;;;;;;5019737;28;20041;-68
2022/08/16 09:20:24;;;;;;;16.58;12.77;;;;;;;;;;5022597;28;20037;-68
2022/08/16 09:22:49;;;;;;;22.25;13.02;;;;;;;;;;5022624;28;20448;-67
2022/08/16 09:25:17;;;;;;;17.05;13.30;;;;;;;;;;5008183;28;20043;-67
2022/08/16 09:27:43;;;;;;;19.58;12.95;;;;;;;;;;5023044;28;20028;-67
2022/08/16 09:30:10;;;;;;;22.25;13.38;;;;;;;;;;5018712;28;20453;-68
2022/08/16 09:32:35;;;;;;;17.45;13.18;;;;;;;;;;5033840;28;20068;-68
2022/08/16 09:35:04;;;;;;;18.17;12.02;;;;;;;;;;5020262;28;20862;-68
2022/08/16 09:37:30;;;;;;;20.05;12.25;;;;;;;;;;5015696;28;20450;-68
2022/08/16 09:39:58;;;;;;;16.42;11.98;;;;;;;;;;5027689;28;20032;-68
2022/08/16 09:42:27;;;;;;;18.92;13.68;;;;;;;;;;5001322;28;20056;-68
2022/08/16 09:44:52;;;;;;;23.10;13.75;;;;;;;;;;5004467;28;20614;-69
2022/08/16 09:47:18;;;;;;;20.02;13.32;;;;;;;;;;5006869;28;20182;-67
2022/08/16 09:49:44;;;;;;;19.33;12.75;;;;;;;;;;5003623;28;20473;-68
2022/08/16 09:52:10;;;;;;;17.20;12.65;;;;;;;;;;5004149;28;20048;-68
2022/08/16 09:54:39;;;;;;;18.60;13.05;;;;;;;;;;5005455;28;20386;-67
2022/08/16 09:57:05;;;;;;;20.55;13.20;;;;;;;;;;5006555;28;20474;-68
2022/08/16 09:59:30;;;;;;;17.65;12.40;;;;;;;;;;5002990;28;20061;-68
2022/08/16 10:01:56;;;;;;;16.98;12.18;;;;;;;;;;5006082;28;20366;-69
2022/08/16 10:04:24;;;;;;;17.65;12.35;;;;;;;;;;5005878;28;20075;-67
2022/08/16 10:06:49;;;;;;;17.80;12.02;;;;;;;;;;5006073;28;20920;-69
2022/08/16 10:09:14;;;;;;;16.35;11.88;;;;;;;;;;5006609;28;20039;-67
2022/08/16 10:14:25;;;;;;;19.50;12.20;;;;;;;;;;5007176;28;20424;-68
2022/08/16 10:16:52;;;;;;;18.25;11.60;;;;;;;;;;5006011;28;20236;-68
2022/08/16 10:19:20;;;;;;;15.25;12.05;;;;;;;;;;5020856;28;20599;-67
2022/08/16 10:21:48;;;;;;;14.68;11.63;;;;;;;;;;5019180;28;20071;-68
2022/08/16 10:24:14;;;;;;;15.52;12.00;;;;;;;;;;5020100;28;21718;-68
2022/08/16 10:26:40;;;;;;;17.45;11.77;;;;;;;;;;5004838;28;20040;-67
2022/08/16 10:29:05;;;;;;;18.30;12.20;;;;;;;;;;5006667;28;20048;-67
2022/08/16 10:31:34;;;;;;;18.15;12.88;;;;;;;;;;5020818;28;20533;-67
2022/08/16 10:34:00;;;;;;;16.52;11.70;;;;;;;;;;5019932;28;20839;-68
2022/08/16 10:36:26;;;;;;;17.27;12.40;;;;;;;;;;5010594;28;20385;-67
2022/08/16 10:38:51;;;;;;;20.02;12.45;;;;;;;;;;5005754;28;20470;-68
2022/08/16 10:41:16;;;;;;;17.88;12.77;;;;;;;;;;5020921;28;20060;-67
2022/08/16 10:43:44;;;;;;;15.63;11.32;;;;;;;;;;5006118;28;20147;-67
2022/08/16 10:46:11;;;;;;;15.40;11.40;;;;;;;;;;5005456;28;20029;-67
2022/08/16 10:48:38;;;;;;;15.88;12.43;;;;;;;;;;5003028;28;20508;-67
2022/08/16 10:51:04;;;;;;;19.33;12.85;;;;;;;;;;5011871;28;20754;-67
2022/08/16 10:53:31;;;;;;;19.60;11.55;;;;;;;;;;5010990;28;20056;-67
2022/08/16 10:56:01;;;;;;;18.17;11.98;;;;;;;;;;5004318;28;20776;-66
2022/08/16 10:58:29;;;;;;;19.85;12.00;;;;;;;;;;4996601;28;20124;-67
2022/08/16 11:00:54;;;;;;;17.05;12.43;;;;;;;;;;5023688;28;20436;-68
2022/08/16 11:03:22;;;;;;;19.25;13.00;;;;;;;;;;5026473;28;20122;-67
2022/08/16 11:05:48;;;;;;;18.75;13.00;;;;;;;;;;5006347;28;20437;-67
2022/08/16 11:08:14;;;;;;;17.85;13.65;;;;;;;;;;5010234;28;20088;-67
2022/08/16 11:10:41;;;;;;;19.10;12.15;;;;;;;;;;5024088;28;20047;-68
2022/08/16 11:13:07;;;;;;;16.45;12.60;;;;;;;;;;5023976;28;20507;-68
2022/08/16 11:15:35;;;;;;;14.98;11.52;;;;;;;;;;5010809;28;20037;-69
2022/08/16 11:18:01;;;;;;;15.70;13.15;;;;;;;;;;5013547;28;20469;-66
2022/08/16 11:20:27;;;;;;;19.38;13.23;;;;;;;;;;5010018;28;20873;-69
2022/08/16 11:22:53;;;;;;;18.23;13.20;;;;;;;;;;5015640;28;20029;-69
2022/08/16 11:25:20;;;;;;;23.65;14.02;;;;;;;;;;5009142;28;20561;-68
2022/08/16 11:27:48;;;;;;;17.80;13.13;;;;;;;;;;4999994;28;20541;-68
2022/08/16 11:30:14;;;;;;;19.70;13.50;;;;;;;;;;5011035;28;20045;-67
2022/08/16 11:32:42;;;;;;;14.27;12.15;;;;;;;;;;5012720;28;20204;-67
2022/08/16 11:35:11;;;;;;;16.65;12.35;;;;;;;;;;5009333;28;20029;-68
2022/08/16 11:37:37;;;;;;;12.52;10.63;;;;;;;;;;5009767;28;20037;-67
2022/08/16 11:40:03;;;;;;;15.43;11.10;;;;;;;;;;5008657;28;20705;-69
2022/08/16 11:42:29;;;;;;;16.13;12.18;;;;;;;;;;5008748;28;23898;-67
2022/08/16 11:44:54;;;;;;;14.82;11.68;;;;;;;;;;5024763;28;20044;-67
2022/08/16 11:47:19;;;;;;;18.90;11.90;;;;;;;;;;5023779;28;20041;-67
2022/08/16 11:49:45;;;;;;;20.77;12.30;;;;;;;;;;5024426;28;20065;-67
2022/08/16 11:52:10;;;;;;;20.50;12.20;;;;;;;;;;5006495;28;20517;-67
2022/08/16 11:54:39;;;;;;;18.95;12.90;;;;;;;;;;5024279;28;20033;-67
2022/08/16 11:57:04;;;;;;;16.95;13.43;;;;;;;;;;5007463;28;20435;-67
2022/08/16 11:59:29;;;;;;;18.45;12.77;;;;;;;;;;5022944;28;20130;-67
2022/08/16 12:01:56;;;;;;;16.92;11.93;;;;;;;;;;5009727;28;20568;-67
2022/08/16 12:04:22;;;;;;;19.67;12.55;;;;;;;;;;5008517;28;20105;-68
2022/08/16 12:06:48;;;;;;;16.83;11.18;;;;;;;;;;5025261;28;20025;-68
2022/08/16 12:09:13;;;;;;;12.45;11.20;;;;;;;;;;5012509;28;20033;-67
2022/08/16 12:11:39;;;;;;;16.63;12.45;;;;;;;;;;5007883;28;20058;-67
2022/08/16 12:14:06;;;;;;;16.70;12.48;;;;;;;;;;5010522;28;20033;-68
2022/08/16 12:16:33;;;;;;;17.33;12.93;;;;;;;;;;5016807;28;20037;-68
2022/08/16 12:18:58;;;;;;;15.10;12.25;;;;;;;;;;5008772;28;20142;-67
2022/08/16 12:21:24;;;;;;;15.57;12.52;;;;;;;;;;5023627;28;20040;-68
2022/08/16 12:23:49;;;;;;;17.17;11.40;;;;;;;;;;5011099;28;20172;-67
2022/08/16 12:26:16;;;;;;;18.73;12.20;;;;;;;;;;5010376;28;20021;-67
2022/08/16 12:28:41;;;;;;;13.88;11.63;;;;;;;;;;5026147;28;20254;-71
2022/08/16 12:31:09;;;;;;;15.45;13.07;;;;;;;;;;5009578;28;20029;-70
2022/08/16 12:33:42;;;;;;;17.02;12.68;;;;;;;;;;5009828;28;20044;-71
2022/08/16 12:36:07;;;;;;;16.48;12.75;;;;;;;;;;5009032;28;20161;-71
2022/08/16 12:38:33;;;;;;;19.35;13.27;;;;;;;;;;5008618;28;20118;-72
2022/08/16 12:40:58;;;;;;;15.55;13.35;;;;;;;;;;5009300;28;20033;-71
2022/08/16 12:43:24;;;;;;;18.77;13.02;;;;;;;;;;5024940;28;20037;-72
2022/08/16 12:45:51;;;;;;;13.93;12.15;;;;;;;;;;5007893;28;20364;-70
2022/08/16 12:51:02;;;;;;;17.88;13.75;;;;;;;;;;5005580;28;20044;-73
2022/08/16 12:53:28;;;;;;;18.17;13.52;;;;;;;;;;5007647;28;20044;-72
2022/08/16 12:55:53;;;;;;;17.77;14.00;;;;;;;;;;5021488;28;20037;-73
2022/08/16 12:58:18;;;;;;;16.80;12.93;;;;;;;;;;5007850;28;20069;-71
2022/08/16 13:00:44;;;;;;;18.52;14.15;;;;;;;;;;5009823;28;20029;-72
2022/08/16 13:03:11;;;;;;;16.20;13.07;;;;;;;;;;5013141;28;20536;-71
2022/08/16 13:05:40;;;;;;;16.67;13.88;;;;;;;;;;5004045;28;20161;-71
2022/08/16 13:08:12;;;;;;;15.30;13.80;;;;;;;;;;5021603;28;20068;-72
2022/08/16 13:10:37;;;;;;;17.27;14.18;;;;;;;;;;5008153;28;20637;-72
2022/08/16 13:13:04;;;;;;;18.38;14.43;;;;;;;;;;5005660;28;20060;-74
2022/08/16 13:15:30;;;;;;;17.52;13.57;;;;;;;;;;5003451;28;20044;-70
2022/08/16 13:17:56;;;;;;;18.13;15.68;;;;;;;;;;5003641;28;20971;-71
2022/08/16 13:20:23;;;;;;;20.90;18.63;;;;;;;;;;5004302;28;20065;-67
2022/08/16 13:23:02;;;;;;;24.33;21.80;;;;;;;;;;5003441;28;20037;-68
2022/08/16 13:25:28;;;;;;;29.27;25.77;;;;;;;;;;5004856;28;20628;-69
2022/08/16 13:27:55;;;;;;;34.85;31.13;;;;;;;;;;5005626;28;20145;-72
2022/08/16 13:30:20;;;;;;;37.30;33.50;;;;;;;;;;5007493;28;20058;-72
2022/08/16 13:32:46;;;;;;;40.33;36.15;;;;;;;;;;5004684;28;20369;-73
2022/08/16 13:35:11;;;;;;;41.67;37.22;;;;;;;;;;5008567;28;20135;-73
2022/08/16 13:37:37;;;;;;;41.03;36.50;;;;;;;;;;5004256;28;20349;-71
2022/08/16 13:40:04;;;;;;;41.53;37.22;;;;;;;;;;5004740;28;20103;-67
2022/08/16 13:42:30;;;;;;;36.65;32.75;;;;;;;;;;5005878;28;20040;-68
2022/08/16 13:44:56;;;;;;;30.92;27.77;;;;;;;;;;5004473;28;20151;-68
2022/08/16 13:47:22;;;;;;;25.88;23.38;;;;;;;;;;5013973;28;20286;-72
2022/08/16 13:49:47;;;;;;;25.83;23.13;;;;;;;;;;5003998;28;20033;-74
2022/08/16 13:52:13;;;;;;;29.10;25.85;;;;;;;;;;5018541;28;20099;-72
2022/08/16 13:54:38;;;;;;;24.27;20.55;;;;;;;;;;5018494;28;20285;-67
2022/08/16 13:57:04;;;;;;;24.90;22.30;;;;;;;;;;5005803;28;20560;-69
2022/08/16 13:59:30;;;;;;;27.95;24.10;;;;;;;;;;5006233;28;20296;-68
2022/08/16 14:01:57;;;;;;;26.23;23.65;;;;;;;;;;5019912;28;20076;-68
2022/08/16 14:04:27;;;;;;;31.75;28.40;;;;;;;;;;5002424;28;20797;-68
2022/08/16 14:06:52;;;;;;;27.35;24.55;;;;;;;;;;5004539;28;20423;-68
2022/08/16 14:09:19;;;;;;;39.17;35.17;;;;;;;;;;5019237;28;20036;-68
2022/08/16 14:11:44;;;;;;;46.17;41.42;;;;;;;;;;5004392;28;20041;-68
2022/08/16 14:14:09;;;;;;;50.22;45.03;;;;;;;;;;5018865;28;20529;-68
2022/08/16 14:16:34;;;;;;;52.50;46.88;;;;;;;;;;5018879;28;20296;-68